createdAt,value
2023-02-24T00:00:28.960Z,32.47
2023-02-24T00:04:33.490Z,36.37
2023-02-24T00:08:35.102Z,36.30
2023-02-24T00:12:36.483Z,37.17
2023-02-24T00:16:38.514Z,30.23
2023-02-24T00:20:39.848Z,21.83
2023-02-24T00:24:41.997Z,17.10
2023-02-24T00:28:44.354Z,15.50
2023-02-24T00:32:45.917Z,12.47
2023-02-24T00:36:48.700Z,11.37
2023-02-24T00:40:50.006Z,11.33
2023-02-24T00:44:54.074Z,11.33
2023-02-24T00:48:55.409Z,10.77
2023-02-24T00:52:57.221Z,10.57
2023-02-24T00:56:58.526Z,12.80
2023-02-24T01:01:00.842Z,12.47
2023-02-24T01:05:04.965Z,12.60
2023-02-24T01:09:08.270Z,12.03
2023-02-24T01:13:09.720Z,12.20
2023-02-24T01:17:11.021Z,12.20
2023-02-24T01:21:12.760Z,12.30
2023-02-24T01:25:14.610Z,12.20
2023-02-24T01:29:16.072Z,12.50
2023-02-24T01:33:18.544Z,13.27
2023-02-24T01:37:20.962Z,13.40
2023-02-24T01:41:27.520Z,13.43
2023-02-24T01:45:29.823Z,13.07
2023-02-24T01:49:38.835Z,13.20
2023-02-24T01:53:40.203Z,14.47
2023-02-24T01:57:41.979Z,13.87
2023-02-24T02:01:45.893Z,14.30
2023-02-24T02:05:48.415Z,15.50
2023-02-24T02:09:54.501Z,15.37
2023-02-24T02:13:56.755Z,16.27
2023-02-24T02:18:20.905Z,15.93
2023-02-24T02:22:41.234Z,15.83
2023-02-24T02:27:07.237Z,15.33
2023-02-24T02:31:29.906Z,16.00
2023-02-24T02:35:46.349Z,15.13
2023-02-24T02:40:15.332Z,16.27
2023-02-24T02:44:24.102Z,16.60
2023-02-24T02:48:36.140Z,17.60
2023-02-24T02:52:46.971Z,16.17
2023-02-24T02:56:59.565Z,15.53
2023-02-24T03:01:03.606Z,15.90
2023-02-24T03:05:09.891Z,17.87
2023-02-24T03:09:20.510Z,18.80
2023-02-24T03:13:25.718Z,18.97
2023-02-24T03:17:30.765Z,20.73
2023-02-24T03:21:47.185Z,21.47
2023-02-24T03:25:58.665Z,21.47
2023-02-24T03:30:07.378Z,20.17
2023-02-24T03:34:18.623Z,19.90
2023-02-24T03:38:23.163Z,19.03
2023-02-24T03:42:30.752Z,19.13
2023-02-24T03:46:32.332Z,17.90
2023-02-24T03:50:34.326Z,17.13
2023-02-24T03:55:08.527Z,17.40
2023-02-24T03:59:35.302Z,16.77
2023-02-24T04:03:58.657Z,15.30
2023-02-24T04:08:04.362Z,13.70
2023-02-24T04:12:27.411Z,14.73
2023-02-24T04:16:36.493Z,13.47
2023-02-24T04:20:39.900Z,12.67
2023-02-24T04:24:44.412Z,12.30
2023-02-24T04:28:48.540Z,11.73
2023-02-24T04:32:49.978Z,11.77
2023-02-24T04:36:51.316Z,12.37
2023-02-24T04:40:52.869Z,13.53
2023-02-24T04:44:58.420Z,13.40
2023-02-24T04:49:02.076Z,13.33
2023-02-24T04:53:07.949Z,10.67
2023-02-24T04:57:10.522Z,10.20
2023-02-24T05:01:11.849Z,10.43
2023-02-24T05:05:14.226Z,10.00
2023-02-24T05:09:17.930Z,8.90
2023-02-24T05:13:27.920Z,8.83
2023-02-24T05:17:29.376Z,8.70
2023-02-24T05:21:36.721Z,8.50
2023-02-24T05:25:38.403Z,7.17
2023-02-24T05:29:40.391Z,8.13
2023-02-24T05:33:43.618Z,9.30
2023-02-24T05:37:45.019Z,8.33
2023-02-24T05:41:48.637Z,8.60
2023-02-24T05:45:49.986Z,8.87
2023-02-24T05:49:54.148Z,8.23
2023-02-24T05:53:55.954Z,8.13
2023-02-24T05:57:59.200Z,7.77
2023-02-24T06:02:07.276Z,7.57
2023-02-24T06:06:09.450Z,7.43
2023-02-24T06:10:11.680Z,6.47
2023-02-24T06:14:13.043Z,6.70
2023-02-24T06:18:17.360Z,6.63
2023-02-24T06:22:22.503Z,6.97
2023-02-24T06:26:25.141Z,6.97
2023-02-24T06:30:27.193Z,6.87
2023-02-24T06:34:28.526Z,6.40
2023-02-24T06:38:31.483Z,6.83
2023-02-24T06:42:32.931Z,5.63
2023-02-24T06:46:34.312Z,6.13
2023-02-24T06:50:35.634Z,6.37
2023-02-24T06:54:37.777Z,5.87
2023-02-24T06:58:39.201Z,6.97
2023-02-24T07:02:40.577Z,6.70
2023-02-24T07:06:44.234Z,6.87
2023-02-24T07:10:45.889Z,6.90
2023-02-24T07:14:50.284Z,7.30
2023-02-24T07:18:59.486Z,7.20
2023-02-24T07:23:02.197Z,7.00
2023-02-24T07:27:05.285Z,6.67
2023-02-24T07:31:08.453Z,7.13
2023-02-24T07:35:09.854Z,6.50
2023-02-24T07:39:11.718Z,6.10
2023-02-24T07:43:13.115Z,5.73
2023-02-24T07:47:15.730Z,6.53
2023-02-24T07:51:22.447Z,5.90
2023-02-24T07:55:25.762Z,6.73
2023-02-24T07:59:32.645Z,7.33
2023-02-24T08:03:37.794Z,5.50
2023-02-24T08:07:40.104Z,5.63
2023-02-24T08:11:42.534Z,6.10
2023-02-24T08:15:55.940Z,6.00
2023-02-24T08:20:15.308Z,5.77
2023-02-24T08:24:25.382Z,5.40
2023-02-24T08:28:27.320Z,5.47
2023-02-24T08:32:39.127Z,5.70
2023-02-24T08:36:46.806Z,6.30
2023-02-24T08:40:51.374Z,5.90
2023-02-24T08:44:53.779Z,6.37
2023-02-24T08:49:00.890Z,6.17
2023-02-24T08:53:02.295Z,6.90
2023-02-24T08:57:09.704Z,7.40
2023-02-24T09:01:24.095Z,7.10
2023-02-24T09:05:25.999Z,7.53
2023-02-24T09:09:28.032Z,6.60
2023-02-24T09:13:32.811Z,6.53
2023-02-24T09:17:40.518Z,5.80
2023-02-24T09:22:10.397Z,6.00
2023-02-24T09:26:14.834Z,6.63
2023-02-24T09:30:35.091Z,6.47
2023-02-24T09:34:43.975Z,6.90
2023-02-24T09:38:59.729Z,6.93
2023-02-24T09:43:10.944Z,6.27
2023-02-24T09:47:40.655Z,7.10
2023-02-24T09:51:42.321Z,6.47
2023-02-24T09:56:00.812Z,6.63
2023-02-24T10:00:25.077Z,5.50
2023-02-24T10:04:40.534Z,5.97
2023-02-24T10:08:50.753Z,5.60
2023-02-24T10:13:17.168Z,5.70
2023-02-24T10:17:24.999Z,5.77
2023-02-24T10:21:48.294Z,6.07
2023-02-24T10:26:06.794Z,6.53
2023-02-24T10:30:20.182Z,6.10
2023-02-24T10:34:26.305Z,6.53
2023-02-24T10:38:28.569Z,6.60
2023-02-24T10:42:34.288Z,6.50
2023-02-24T10:46:41.453Z,6.77
2023-02-24T10:50:55.397Z,6.40
2023-02-24T10:55:27.965Z,7.90
2023-02-24T10:59:58.490Z,6.60
2023-02-24T11:04:12.361Z,6.47
2023-02-24T11:08:36.767Z,6.63
2023-02-24T11:13:10.595Z,6.47
2023-02-24T11:17:21.163Z,6.33
2023-02-24T11:21:25.738Z,6.80
2023-02-24T11:25:43.537Z,7.00
2023-02-24T11:29:54.472Z,7.00
2023-02-24T11:34:24.769Z,8.90
2023-02-24T11:38:35.750Z,6.90
2023-02-24T11:42:49.824Z,10.83
2023-02-24T11:46:58.305Z,7.67
2023-02-24T11:51:23.386Z,6.43
2023-02-24T11:55:36.068Z,8.30
2023-02-24T11:59:43.731Z,7.57
2023-02-24T12:04:05.131Z,9.37
2023-02-24T12:08:09.216Z,8.10
2023-02-24T12:12:37.613Z,7.53
2023-02-24T12:16:45.774Z,9.37
2023-02-24T12:20:57.659Z,7.90
2023-02-24T12:24:59.112Z,8.47
2023-02-24T12:29:10.598Z,9.27
2023-02-24T12:33:27.923Z,8.93
2023-02-24T12:38:09.516Z,9.30
2023-02-24T12:42:35.624Z,9.97
2023-02-24T12:46:38.876Z,8.37
2023-02-24T12:51:31.330Z,9.10
2023-02-24T12:55:43.835Z,8.87
2023-02-24T12:59:45.889Z,9.87
2023-02-24T13:04:01.471Z,10.00
2023-02-24T13:08:25.771Z,10.70
2023-02-24T13:12:29.819Z,12.00
2023-02-24T13:16:36.340Z,11.97
2023-02-24T13:20:38.582Z,12.83
2023-02-24T13:25:09.044Z,12.60
2023-02-24T13:29:13.994Z,13.67
2023-02-24T13:33:23.664Z,8.93
2023-02-24T13:37:30.489Z,9.70
2023-02-24T13:41:32.002Z,8.53
2023-02-24T13:45:42.672Z,8.50
2023-02-24T13:50:02.933Z,8.87
2023-02-24T13:54:30.189Z,8.60
2023-02-24T13:58:50.418Z,8.50
2023-02-24T14:02:53.333Z,9.47
2023-02-24T14:07:01.441Z,9.23
2023-02-24T14:11:03.972Z,7.53
2023-02-24T14:15:06.040Z,7.10
2023-02-24T14:19:14.797Z,7.87
2023-02-24T14:23:24.135Z,6.60
2023-02-24T14:27:27.004Z,7.13
2023-02-24T14:31:30.246Z,6.00
2023-02-24T14:35:46.895Z,6.67
2023-02-24T14:39:56.768Z,7.30
2023-02-24T14:43:58.136Z,7.73
2023-02-24T14:47:59.836Z,7.20
2023-02-24T14:52:14.836Z,8.57
2023-02-24T14:56:17.717Z,8.17
2023-02-24T15:00:37.515Z,6.73
2023-02-24T15:04:43.604Z,7.40
2023-02-24T15:08:48.830Z,8.03
2023-02-24T15:13:01.253Z,8.23
2023-02-24T15:17:10.346Z,8.37
2023-02-24T15:21:27.452Z,8.53
2023-02-24T15:25:47.478Z,8.70
2023-02-24T15:30:05.101Z,8.30
2023-02-24T15:34:18.155Z,8.40
2023-02-24T15:38:25.294Z,8.47
2023-02-24T15:42:36.003Z,8.50
2023-02-24T15:46:37.381Z,9.13
2023-02-24T15:50:38.726Z,8.67
2023-02-24T15:54:42.413Z,8.93
2023-02-24T15:58:44.217Z,8.47
2023-02-24T16:02:45.601Z,8.30
2023-02-24T16:06:56.490Z,8.50
2023-02-24T16:10:58.175Z,7.83
2023-02-24T16:15:03.826Z,8.10
2023-02-24T16:19:05.412Z,9.27
2023-02-24T16:23:06.689Z,8.43
2023-02-24T16:27:14.154Z,8.87
2023-02-24T16:31:15.603Z,8.90
2023-02-24T16:35:18.246Z,8.53
2023-02-24T16:39:19.596Z,9.33
2023-02-24T16:43:21.065Z,9.37
2023-02-24T16:47:24.111Z,7.57
2023-02-24T16:51:26.019Z,7.27
2023-02-24T16:55:27.723Z,7.83
2023-02-24T16:59:29.205Z,8.67
2023-02-24T17:03:42.295Z,8.20
2023-02-24T17:07:43.653Z,8.97
2023-02-24T17:11:45.211Z,8.77
2023-02-24T17:15:47.797Z,9.17
2023-02-24T17:19:49.147Z,9.20
2023-02-24T17:23:51.365Z,9.47
2023-02-24T17:27:54.405Z,9.60
2023-02-24T17:31:57.286Z,10.33
2023-02-24T17:35:58.797Z,10.90
2023-02-24T17:40:00.453Z,10.73
2023-02-24T17:44:02.892Z,11.33
2023-02-24T17:48:04.347Z,11.20
2023-02-24T17:52:06.356Z,12.03
2023-02-24T17:56:08.709Z,11.03
2023-02-24T18:00:12.465Z,10.90
2023-02-24T18:04:16.785Z,11.97
2023-02-24T18:08:18.159Z,12.17
2023-02-24T18:12:20.797Z,11.20
2023-02-24T18:16:22.752Z,11.00
2023-02-24T18:20:24.315Z,10.37
2023-02-24T18:24:25.623Z,9.43
2023-02-24T18:28:27.067Z,9.70
2023-02-24T18:32:28.553Z,9.63
2023-02-24T18:36:30.089Z,9.90
2023-02-24T18:40:31.532Z,11.20
2023-02-24T18:44:32.937Z,11.33
2023-02-24T18:48:34.944Z,11.50
2023-02-24T18:52:36.346Z,12.50
2023-02-24T18:56:37.836Z,12.47
2023-02-24T19:00:39.336Z,13.47
2023-02-24T19:04:40.660Z,13.03
2023-02-24T19:08:42.224Z,11.83
2023-02-24T19:12:43.495Z,12.80
2023-02-24T19:16:45.391Z,13.80
2023-02-24T19:20:46.763Z,12.03
2023-02-24T19:24:48.121Z,7.27
2023-02-24T19:28:49.850Z,7.27
2023-02-24T19:32:51.383Z,6.40
2023-02-24T19:36:52.811Z,5.97
2023-02-24T19:40:58.135Z,6.83
2023-02-24T19:44:59.462Z,5.33
2023-02-24T19:49:00.988Z,4.73
2023-02-24T19:53:02.412Z,4.80
2023-02-24T19:57:03.983Z,4.40
2023-02-24T20:01:10.832Z,3.87
2023-02-24T20:05:12.314Z,3.83
2023-02-24T20:09:16.626Z,4.23
2023-02-24T20:13:17.959Z,5.17
2023-02-24T20:17:19.716Z,4.47
2023-02-24T20:21:21.271Z,4.00
2023-02-24T20:25:22.573Z,4.37
2023-02-24T20:29:24.010Z,4.00
2023-02-24T20:33:25.729Z,4.13
2023-02-24T20:37:27.066Z,4.90
2023-02-24T20:41:28.898Z,3.67
2023-02-24T20:45:31.538Z,4.67
2023-02-24T20:49:33.001Z,5.13
2023-02-24T20:53:47.973Z,4.97
2023-02-24T20:57:57.145Z,4.80
2023-02-24T21:01:59.555Z,4.30
2023-02-24T21:06:09.536Z,5.30
2023-02-24T21:10:11.928Z,4.00
2023-02-24T21:14:17.332Z,4.23
2023-02-24T21:18:20.319Z,4.77
2023-02-24T21:22:21.660Z,5.07
2023-02-24T21:26:26.678Z,4.63
2023-02-24T21:30:28.189Z,5.33
2023-02-24T21:34:30.499Z,4.63
2023-02-24T21:38:34.002Z,4.90
2023-02-24T21:42:35.285Z,5.53
2023-02-24T21:46:36.812Z,4.67
2023-02-24T21:50:38.094Z,4.80
2023-02-24T21:54:39.693Z,4.73
2023-02-24T21:58:41.084Z,4.57
2023-02-24T22:02:43.076Z,4.40
2023-02-24T22:06:45.014Z,5.00
2023-02-24T22:10:47.200Z,5.33
2023-02-24T22:14:48.508Z,5.70
2023-02-24T22:18:50.963Z,5.13
2023-02-24T22:22:52.336Z,5.37
2023-02-24T22:26:53.670Z,4.60
2023-02-24T22:30:56.103Z,6.23
2023-02-24T22:34:57.482Z,5.60
2023-02-24T22:39:00.897Z,5.27
2023-02-24T22:43:02.236Z,5.27
2023-02-24T22:47:04.380Z,5.00
2023-02-24T22:51:08.516Z,4.80
2023-02-24T22:55:10.541Z,4.90
2023-02-24T22:59:12.789Z,4.93
2023-02-24T23:03:16.133Z,5.03
2023-02-24T23:07:17.449Z,5.80
2023-02-24T23:11:30.721Z,6.90
2023-02-24T23:15:38.822Z,6.37
2023-02-24T23:19:40.190Z,5.00
2023-02-24T23:23:41.902Z,5.70
2023-02-24T23:27:43.201Z,4.90
2023-02-24T23:31:45.395Z,4.27
2023-02-24T23:35:47.094Z,6.13
2023-02-24T23:39:48.438Z,5.23
2023-02-24T23:43:49.866Z,5.43
2023-02-24T23:47:52.346Z,4.57
2023-02-24T23:51:53.721Z,5.13
2023-02-24T23:55:54.993Z,6.03
2023-02-24T23:59:56.392Z,4.40
